createdAt,value
2023-01-25T00:00:49.648Z,83.20
2023-01-25T00:03:16.315Z,82.40
2023-01-25T00:05:42.966Z,88.03
2023-01-25T00:08:09.591Z,84.38
2023-01-25T00:10:36.205Z,86.10
2023-01-25T00:13:02.850Z,84.75
2023-01-25T00:15:29.436Z,85.45
2023-01-25T00:17:55.984Z,89.72
2023-01-25T00:20:22.599Z,92.88
2023-01-25T00:22:49.211Z,93.47
2023-01-25T00:25:15.807Z,92.60
2023-01-25T00:27:42.502Z,95.15
2023-01-25T00:30:09.764Z,97.07
2023-01-25T00:32:53.100Z,96.75
2023-01-25T00:35:19.726Z,94.15
2023-01-25T00:37:52.901Z,99.75
2023-01-25T00:40:19.582Z,107.88
2023-01-25T00:42:46.221Z,112.75
2023-01-25T00:45:13.253Z,114.68
2023-01-25T00:47:39.963Z,113.43
2023-01-25T00:50:07.921Z,115.32
2023-01-25T00:52:34.668Z,117.28
2023-01-25T00:55:02.901Z,116.10
2023-01-25T00:57:29.694Z,119.82
2023-01-25T00:59:56.331Z,126.43
2023-01-25T01:02:22.913Z,124.65
2023-01-25T01:04:49.821Z,127.40
2023-01-25T01:07:16.426Z,126.68
2023-01-25T01:09:43.152Z,124.93
2023-01-25T01:12:09.809Z,122.40
2023-01-25T01:14:36.589Z,112.20
2023-01-25T01:17:03.441Z,107.25
2023-01-25T01:19:30.848Z,114.70
2023-01-25T01:21:57.403Z,106.22
2023-01-25T01:24:24.034Z,106.78
2023-01-25T01:26:50.693Z,106.93
2023-01-25T01:29:17.359Z,102.35
2023-01-25T01:31:44.021Z,104.88
2023-01-25T01:34:13.538Z,106.60
2023-01-25T01:36:40.185Z,105.13
2023-01-25T01:39:06.737Z,101.43
2023-01-25T01:41:33.468Z,105.55
2023-01-25T01:44:00.036Z,104.88
2023-01-25T01:46:38.518Z,105.13
2023-01-25T01:49:10.167Z,107.70
2023-01-25T01:51:58.490Z,111.45
2023-01-25T01:54:34.492Z,106.82
2023-01-25T01:57:14.915Z,111.07
2023-01-25T01:59:56.872Z,115.05
2023-01-25T02:02:26.290Z,110.20
2023-01-25T02:04:57.538Z,114.45
2023-01-25T02:07:33.946Z,114.95
2023-01-25T02:10:02.850Z,117.97
2023-01-25T02:12:29.886Z,119.00
2023-01-25T02:14:56.468Z,121.60
2023-01-25T02:17:28.327Z,130.20
2023-01-25T02:20:30.417Z,128.75
2023-01-25T02:23:04.357Z,122.13
2023-01-25T02:25:31.033Z,118.40
2023-01-25T02:28:07.770Z,125.00
2023-01-25T02:30:34.365Z,124.53
2023-01-25T02:33:03.912Z,117.57
2023-01-25T02:36:00.283Z,118.40
2023-01-25T02:38:29.876Z,119.95
2023-01-25T02:41:02.455Z,121.88
2023-01-25T02:43:32.689Z,119.30
2023-01-25T02:46:27.487Z,120.18
2023-01-25T02:48:57.699Z,115.90
2023-01-25T02:51:26.453Z,117.32
2023-01-25T02:53:53.639Z,113.50
2023-01-25T02:56:20.673Z,110.88
2023-01-25T02:58:47.361Z,106.90
2023-01-25T03:01:14.924Z,106.07
2023-01-25T03:03:42.047Z,123.43
2023-01-25T03:06:09.038Z,103.32
2023-01-25T03:08:35.790Z,103.68
2023-01-25T03:11:03.953Z,103.60
2023-01-25T03:13:30.818Z,100.05
2023-01-25T03:16:04.083Z,98.05
2023-01-25T03:18:30.747Z,95.40
2023-01-25T03:20:57.432Z,95.30
2023-01-25T03:23:24.028Z,94.50
2023-01-25T03:25:50.616Z,93.88
2023-01-25T03:28:17.259Z,93.15
2023-01-25T03:30:44.091Z,92.25
2023-01-25T03:33:10.731Z,89.75
2023-01-25T03:35:37.289Z,86.70
2023-01-25T03:38:03.863Z,90.35
2023-01-25T03:40:30.431Z,90.20
2023-01-25T03:42:57.059Z,87.03
2023-01-25T03:45:23.632Z,91.93
2023-01-25T03:47:50.241Z,89.47
2023-01-25T03:50:16.903Z,92.32
2023-01-25T03:53:32.122Z,89.82
2023-01-25T03:56:10.610Z,90.63
2023-01-25T03:58:39.124Z,84.85
2023-01-25T04:01:07.173Z,91.53
2023-01-25T04:03:34.575Z,96.05
2023-01-25T04:06:01.950Z,92.07
2023-01-25T04:08:28.752Z,92.15
2023-01-25T04:10:57.748Z,92.63
2023-01-25T04:13:25.273Z,90.63
2023-01-25T04:15:52.451Z,87.93
2023-01-25T04:18:19.368Z,87.10
2023-01-25T04:20:46.391Z,88.07
2023-01-25T04:23:13.119Z,90.13
2023-01-25T04:25:39.777Z,90.43
2023-01-25T04:28:06.492Z,91.80
2023-01-25T04:30:33.096Z,92.47
2023-01-25T04:33:06.755Z,91.43
2023-01-25T04:35:33.396Z,89.55
2023-01-25T04:38:00.466Z,91.47
2023-01-25T04:40:27.551Z,96.65
2023-01-25T04:42:54.222Z,90.43
2023-01-25T04:45:21.066Z,93.82
2023-01-25T04:47:47.670Z,95.35
2023-01-25T04:50:14.458Z,91.65
2023-01-25T04:52:41.179Z,94.43
2023-01-25T04:55:08.333Z,93.97
2023-01-25T04:57:35.101Z,93.18
2023-01-25T05:00:01.818Z,96.05
2023-01-25T05:02:28.527Z,100.47
2023-01-25T05:04:55.328Z,96.95
2023-01-25T05:07:22.091Z,94.10
2023-01-25T05:09:48.697Z,98.20
2023-01-25T05:12:15.376Z,95.38
2023-01-25T05:14:41.968Z,93.90
2023-01-25T05:17:09.089Z,93.45
2023-01-25T05:19:36.037Z,92.88
2023-01-25T05:22:07.471Z,96.82
2023-01-25T05:24:35.505Z,95.22
2023-01-25T05:27:06.259Z,93.65
2023-01-25T05:29:37.917Z,89.25
2023-01-25T05:32:07.045Z,85.22
2023-01-25T05:34:34.759Z,89.45
2023-01-25T05:37:02.219Z,87.47
2023-01-25T05:39:28.898Z,88.57
2023-01-25T05:41:55.531Z,87.30
2023-01-25T05:44:22.912Z,85.40
2023-01-25T05:46:52.024Z,93.50
2023-01-25T05:49:19.296Z,88.00
2023-01-25T05:51:46.880Z,81.90
2023-01-25T05:54:15.849Z,79.93
2023-01-25T05:56:43.621Z,83.55
2023-01-25T05:59:11.625Z,79.63
2023-01-25T06:01:38.458Z,76.85
2023-01-25T06:04:05.167Z,79.57
2023-01-25T06:06:31.850Z,79.03
2023-01-25T06:08:58.499Z,93.35
2023-01-25T06:11:25.034Z,74.57
2023-01-25T06:13:51.917Z,76.28
2023-01-25T06:16:19.174Z,73.72
2023-01-25T06:18:46.048Z,88.68
2023-01-25T06:21:13.132Z,76.47
2023-01-25T06:23:40.217Z,72.53
2023-01-25T06:26:10.387Z,73.07
2023-01-25T06:28:37.714Z,71.72
2023-01-25T06:31:13.271Z,71.78
2023-01-25T06:33:41.572Z,66.05
2023-01-25T06:36:12.547Z,64.35
2023-01-25T06:38:39.429Z,69.30
2023-01-25T06:41:07.618Z,70.43
2023-01-25T06:43:35.003Z,70.38
2023-01-25T06:46:06.691Z,62.67
2023-01-25T06:48:33.734Z,61.60
2023-01-25T06:51:03.667Z,60.60
2023-01-25T06:53:32.618Z,59.00
2023-01-25T06:56:04.502Z,56.83
2023-01-25T06:58:32.194Z,56.85
2023-01-25T07:01:04.621Z,56.63
2023-01-25T07:03:32.261Z,55.03
2023-01-25T07:05:59.573Z,51.78
2023-01-25T07:08:26.235Z,52.28
2023-01-25T07:10:58.355Z,51.20
2023-01-25T07:13:26.401Z,48.28
2023-01-25T07:15:57.813Z,47.63
2023-01-25T07:18:25.579Z,48.58
2023-01-25T07:20:52.488Z,47.63
2023-01-25T07:23:19.913Z,46.33
2023-01-25T07:25:48.172Z,46.10
2023-01-25T07:28:15.629Z,46.47
2023-01-25T07:30:42.763Z,47.60
2023-01-25T07:33:10.897Z,45.53
2023-01-25T07:35:37.956Z,45.22
2023-01-25T07:38:04.849Z,45.88
2023-01-25T07:40:31.428Z,47.63
2023-01-25T07:42:58.807Z,46.67
2023-01-25T07:45:31.688Z,46.17
2023-01-25T07:47:59.085Z,45.00
2023-01-25T07:50:29.172Z,45.45
2023-01-25T07:52:55.764Z,47.47
2023-01-25T07:55:22.429Z,48.58
2023-01-25T07:57:49.196Z,48.75
2023-01-25T08:00:16.121Z,48.83
2023-01-25T08:02:43.322Z,49.70
2023-01-25T08:05:10.872Z,50.80
2023-01-25T08:07:37.841Z,50.80
2023-01-25T08:10:07.043Z,52.55
2023-01-25T08:12:34.382Z,54.10
2023-01-25T08:15:01.226Z,54.88
2023-01-25T08:17:33.930Z,54.50
2023-01-25T08:20:01.617Z,57.45
2023-01-25T08:22:28.459Z,63.33
2023-01-25T08:24:55.103Z,62.65
2023-01-25T08:27:21.768Z,63.72
2023-01-25T08:29:51.042Z,64.47
2023-01-25T08:32:17.710Z,66.40
2023-01-25T08:34:44.284Z,70.25
2023-01-25T08:37:10.924Z,72.70
2023-01-25T08:39:37.852Z,67.47
2023-01-25T08:42:06.452Z,69.53
2023-01-25T08:44:33.168Z,68.32
2023-01-25T08:46:59.757Z,68.32
2023-01-25T08:49:27.667Z,67.65
2023-01-25T08:51:54.256Z,67.45
2023-01-25T08:54:21.084Z,65.90
2023-01-25T08:56:47.686Z,66.72
2023-01-25T08:59:14.261Z,68.25
2023-01-25T09:01:41.003Z,61.83
2023-01-25T09:04:07.574Z,59.83
2023-01-25T09:06:34.157Z,65.20
2023-01-25T09:09:00.788Z,60.47
2023-01-25T09:11:27.677Z,60.40
2023-01-25T09:13:54.383Z,54.17
2023-01-25T09:16:30.914Z,51.80
2023-01-25T09:19:00.007Z,49.90
2023-01-25T09:21:27.233Z,47.83
2023-01-25T09:24:09.484Z,44.75
2023-01-25T09:26:42.922Z,44.58
2023-01-25T09:29:11.979Z,39.53
2023-01-25T09:31:45.641Z,37.08
2023-01-25T09:34:13.934Z,35.03
2023-01-25T09:36:40.821Z,35.35
2023-01-25T09:39:07.774Z,32.67
2023-01-25T09:41:51.751Z,32.60
2023-01-25T09:44:36.299Z,31.92
2023-01-25T09:47:11.855Z,30.88
2023-01-25T09:50:09.852Z,30.23
2023-01-25T09:53:14.033Z,29.35
2023-01-25T09:55:41.638Z,29.25
2023-01-25T09:58:18.293Z,28.58
2023-01-25T10:00:48.145Z,32.15
2023-01-25T10:03:28.811Z,30.45
2023-01-25T10:05:59.821Z,29.02
2023-01-25T10:08:42.968Z,28.40
2023-01-25T10:11:17.183Z,29.50
2023-01-25T10:13:44.317Z,30.27
2023-01-25T10:16:26.138Z,31.75
2023-01-25T10:19:20.032Z,31.13
2023-01-25T10:22:24.129Z,29.33
2023-01-25T10:25:28.976Z,31.30
2023-01-25T10:28:13.912Z,30.83
2023-01-25T10:31:19.828Z,31.23
2023-01-25T10:33:48.278Z,33.85
2023-01-25T10:36:17.741Z,35.08
2023-01-25T10:38:47.547Z,34.10
2023-01-25T10:41:28.422Z,34.38
2023-01-25T10:44:21.080Z,36.17
2023-01-25T10:46:53.683Z,36.03
2023-01-25T10:49:29.342Z,36.42
2023-01-25T10:51:56.669Z,35.05
2023-01-25T10:54:23.959Z,36.38
2023-01-25T10:56:51.193Z,37.33
2023-01-25T10:59:23.503Z,36.00
2023-01-25T11:01:50.186Z,36.22
2023-01-25T11:04:33.334Z,37.80
2023-01-25T11:07:00.666Z,38.55
2023-01-25T11:09:38.592Z,35.45
2023-01-25T11:12:21.683Z,34.25
2023-01-25T11:14:49.884Z,36.20
2023-01-25T11:17:31.445Z,35.95
2023-01-25T11:20:20.604Z,36.25
2023-01-25T11:22:53.457Z,36.35
2023-01-25T11:25:32.567Z,35.75
2023-01-25T11:28:14.643Z,33.58
2023-01-25T11:30:41.371Z,35.95
2023-01-25T11:33:13.082Z,33.10
2023-01-25T11:36:09.691Z,30.98
2023-01-25T11:38:39.733Z,31.15
2023-01-25T11:41:14.906Z,32.75
2023-01-25T11:43:50.365Z,31.70
2023-01-25T11:46:40.645Z,31.63
2023-01-25T11:49:17.289Z,29.52
2023-01-25T11:51:55.756Z,31.02
2023-01-25T11:54:45.076Z,29.30
2023-01-25T11:57:40.530Z,31.00
2023-01-25T12:02:58.990Z,28.38
2023-01-25T12:05:51.263Z,27.60
2023-01-25T12:08:17.795Z,26.45
2023-01-25T12:10:47.090Z,28.08
2023-01-25T12:13:32.428Z,27.17
2023-01-25T12:16:20.803Z,27.27
2023-01-25T12:19:10.264Z,27.05
2023-01-25T12:21:48.883Z,28.35
2023-01-25T12:24:33.235Z,27.15
2023-01-25T12:27:31.839Z,27.77
2023-01-25T12:30:17.641Z,26.60
2023-01-25T12:32:59.499Z,25.50
2023-01-25T12:35:42.976Z,26.95
2023-01-25T12:38:19.334Z,26.40
2023-01-25T12:40:45.900Z,26.05
2023-01-25T12:43:42.044Z,27.55
2023-01-25T12:46:20.693Z,25.90
2023-01-25T12:48:53.337Z,25.38
2023-01-25T12:51:24.422Z,26.45
2023-01-25T12:53:52.659Z,24.73
2023-01-25T12:56:40.727Z,25.65
2023-01-25T12:59:20.453Z,25.48
2023-01-25T13:01:52.843Z,25.15
2023-01-25T13:04:53.351Z,28.80
2023-01-25T13:07:28.319Z,25.52
2023-01-25T13:10:23.802Z,26.25
2023-01-25T13:15:44.166Z,27.73
2023-01-25T13:18:29.203Z,26.77
2023-01-25T13:23:43.791Z,26.67
2023-01-25T13:26:22.276Z,25.30
2023-01-25T13:28:51.021Z,26.80
2023-01-25T13:31:52.121Z,27.48
2023-01-25T13:34:39.035Z,27.73
2023-01-25T13:37:20.833Z,28.13
2023-01-25T13:39:51.800Z,28.35
2023-01-25T13:42:37.148Z,25.75
2023-01-25T13:45:18.835Z,27.63
2023-01-25T13:48:11.012Z,27.33
2023-01-25T13:50:44.040Z,26.55
2023-01-25T13:53:16.484Z,25.88
2023-01-25T13:55:49.185Z,26.63
2023-01-25T13:58:28.718Z,26.98
2023-01-25T14:00:56.946Z,27.48
2023-01-25T14:03:29.134Z,28.20
2023-01-25T14:05:58.382Z,26.33
2023-01-25T14:08:26.866Z,25.67
2023-01-25T14:10:54.506Z,25.70
2023-01-25T14:13:21.107Z,26.70
2023-01-25T14:15:59.293Z,27.05
2023-01-25T14:18:38.284Z,24.65
2023-01-25T14:21:22.038Z,24.73
2023-01-25T14:23:49.244Z,27.17
2023-01-25T14:26:22.532Z,27.17
2023-01-25T14:29:01.186Z,26.30
2023-01-25T14:31:34.473Z,26.20
2023-01-25T14:34:04.179Z,27.48
2023-01-25T14:36:34.244Z,27.92
2023-01-25T14:39:02.577Z,27.63
2023-01-25T14:41:37.846Z,26.33
2023-01-25T14:44:11.280Z,26.58
2023-01-25T14:46:39.866Z,26.95
2023-01-25T14:49:15.488Z,27.38
2023-01-25T14:51:48.551Z,28.88
2023-01-25T14:54:21.412Z,28.25
2023-01-25T14:56:57.890Z,27.50
2023-01-25T14:59:47.790Z,25.90
2023-01-25T15:02:17.604Z,27.27
2023-01-25T15:05:11.015Z,29.08
2023-01-25T15:07:49.175Z,26.67
2023-01-25T15:10:20.936Z,26.70
2023-01-25T15:13:14.499Z,27.13
2023-01-25T15:16:00.193Z,27.42
2023-01-25T15:18:50.626Z,28.45
2023-01-25T15:21:32.089Z,29.52
2023-01-25T15:24:12.362Z,28.38
2023-01-25T15:26:40.269Z,29.30
2023-01-25T15:29:15.707Z,30.08
2023-01-25T15:31:43.753Z,29.90
2023-01-25T15:34:26.198Z,30.15
2023-01-25T15:36:52.792Z,31.17
2023-01-25T15:39:20.206Z,31.83
2023-01-25T15:41:47.957Z,32.65
2023-01-25T15:44:15.473Z,36.83
2023-01-25T15:46:46.277Z,33.55
2023-01-25T15:49:25.479Z,31.83
2023-01-25T15:51:52.190Z,32.67
2023-01-25T15:54:18.860Z,32.65
2023-01-25T15:56:54.870Z,34.05
2023-01-25T15:59:21.563Z,35.42
2023-01-25T16:01:48.198Z,34.13
2023-01-25T16:04:14.882Z,35.42
2023-01-25T16:06:43.556Z,34.22
2023-01-25T16:09:18.552Z,34.72
2023-01-25T16:11:47.264Z,34.10
2023-01-25T16:14:13.981Z,32.08
2023-01-25T16:16:44.767Z,35.65
2023-01-25T16:19:17.339Z,35.13
2023-01-25T16:21:44.038Z,34.50
2023-01-25T16:24:11.622Z,33.25
2023-01-25T16:26:44.472Z,31.35
2023-01-25T16:29:11.800Z,32.25
2023-01-25T16:31:38.467Z,30.02
2023-01-25T16:34:05.134Z,33.08
2023-01-25T16:36:33.838Z,31.23
2023-01-25T16:39:24.306Z,30.02
2023-01-25T16:41:51.150Z,32.75
2023-01-25T16:44:18.122Z,31.40
2023-01-25T16:46:45.017Z,31.33
2023-01-25T16:49:16.882Z,30.30
2023-01-25T16:51:45.384Z,28.33
2023-01-25T16:54:12.483Z,30.85
2023-01-25T16:56:39.177Z,29.52
2023-01-25T16:59:06.731Z,30.13
2023-01-25T17:01:33.390Z,29.75
2023-01-25T17:03:59.983Z,28.85
2023-01-25T17:06:33.503Z,30.08
2023-01-25T17:09:16.412Z,32.85
2023-01-25T17:11:43.902Z,28.65
2023-01-25T17:14:15.036Z,30.77
2023-01-25T17:16:42.118Z,27.95
2023-01-25T17:19:12.618Z,29.33
2023-01-25T17:21:39.632Z,28.55
2023-01-25T17:24:06.610Z,30.42
2023-01-25T17:26:33.372Z,28.20
2023-01-25T17:29:02.772Z,29.48
2023-01-25T17:31:32.745Z,28.70
2023-01-25T17:34:03.609Z,29.02
2023-01-25T17:36:30.456Z,28.40
2023-01-25T17:39:02.009Z,27.42
2023-01-25T17:41:28.829Z,28.40
2023-01-25T17:43:55.397Z,28.73
2023-01-25T17:46:26.073Z,29.00
2023-01-25T17:48:53.832Z,27.17
2023-01-25T17:51:22.887Z,27.38
2023-01-25T17:53:51.200Z,26.27
2023-01-25T17:56:19.173Z,29.25
2023-01-25T17:58:45.956Z,28.33
2023-01-25T18:01:21.465Z,30.15
2023-01-25T18:03:49.741Z,28.73
2023-01-25T18:06:19.843Z,29.67
2023-01-25T18:08:49.043Z,28.77
2023-01-25T18:11:18.301Z,30.13
2023-01-25T18:13:47.547Z,30.77
2023-01-25T18:16:15.272Z,29.95
2023-01-25T18:18:43.475Z,28.80
2023-01-25T18:21:13.289Z,29.83
2023-01-25T18:23:41.183Z,28.55
2023-01-25T18:26:16.070Z,27.98
2023-01-25T18:28:42.611Z,28.40
2023-01-25T18:31:10.162Z,29.40
2023-01-25T18:33:38.366Z,29.35
2023-01-25T18:36:05.585Z,30.00
2023-01-25T18:38:33.376Z,31.38
2023-01-25T18:40:59.979Z,31.60
2023-01-25T18:43:28.105Z,32.40
2023-01-25T18:45:56.650Z,30.30
2023-01-25T18:48:30.884Z,31.90
2023-01-25T18:51:06.103Z,31.00
2023-01-25T18:53:34.251Z,30.40
2023-01-25T18:56:21.746Z,31.25
2023-01-25T18:58:50.125Z,31.70
2023-01-25T19:01:22.047Z,29.05
2023-01-25T19:03:50.408Z,32.22
2023-01-25T19:06:18.309Z,30.88
2023-01-25T19:08:49.707Z,30.15
2023-01-25T19:11:19.976Z,32.83
2023-01-25T19:13:46.783Z,29.60
2023-01-25T19:16:17.736Z,30.55
2023-01-25T19:18:47.099Z,31.17
2023-01-25T19:21:15.466Z,29.48
2023-01-25T19:23:42.473Z,30.10
2023-01-25T19:26:12.506Z,32.20
2023-01-25T19:28:39.521Z,32.35
2023-01-25T19:31:08.228Z,32.85
2023-01-25T19:33:35.607Z,30.77
2023-01-25T19:36:04.342Z,33.83
2023-01-25T19:38:31.986Z,35.13
2023-01-25T19:41:10.506Z,32.53
2023-01-25T19:43:37.207Z,30.13
2023-01-25T19:46:24.417Z,31.85
2023-01-25T19:48:52.923Z,31.25
2023-01-25T19:51:22.753Z,31.17
2023-01-25T19:53:55.529Z,32.65
2023-01-25T19:56:22.161Z,31.60
2023-01-25T19:58:49.636Z,30.85
2023-01-25T20:01:19.140Z,31.98
2023-01-25T20:03:46.148Z,29.48
2023-01-25T20:06:14.449Z,30.90
2023-01-25T20:08:43.358Z,30.20
2023-01-25T20:11:21.880Z,31.83
2023-01-25T20:13:50.468Z,28.55
2023-01-25T20:16:18.100Z,29.35
2023-01-25T20:18:46.849Z,28.98
2023-01-25T20:21:16.924Z,29.63
2023-01-25T20:23:45.266Z,28.92
2023-01-25T20:26:14.534Z,26.98
2023-01-25T20:28:42.958Z,26.90
2023-01-25T20:31:31.047Z,28.35
2023-01-25T20:33:59.960Z,27.98
2023-01-25T20:36:28.827Z,27.83
2023-01-25T20:38:55.834Z,28.27
2023-01-25T20:41:23.257Z,27.60
2023-01-25T20:43:57.645Z,27.38
2023-01-25T20:46:25.278Z,28.58
2023-01-25T20:48:53.575Z,29.33
2023-01-25T20:51:21.644Z,31.42
2023-01-25T20:53:50.126Z,30.15
2023-01-25T20:56:18.132Z,31.98
2023-01-25T20:58:50.357Z,31.98
2023-01-25T21:01:23.334Z,30.33
2023-01-25T21:03:51.192Z,31.35
2023-01-25T21:06:18.147Z,32.28
2023-01-25T21:08:44.828Z,31.65
2023-01-25T21:11:13.416Z,28.92
2023-01-25T21:13:40.005Z,29.80
2023-01-25T21:16:15.969Z,30.75
2023-01-25T21:18:45.649Z,30.38
2023-01-25T21:21:17.795Z,29.95
2023-01-25T21:23:46.573Z,30.55
2023-01-25T21:26:18.938Z,31.13
2023-01-25T21:28:46.525Z,31.98
2023-01-25T21:31:15.961Z,31.08
2023-01-25T21:33:42.952Z,30.23
2023-01-25T21:36:11.688Z,32.40
2023-01-25T21:38:39.330Z,33.28
2023-01-25T21:41:07.520Z,32.70
2023-01-25T21:43:54.488Z,31.55
2023-01-25T21:46:25.777Z,30.80
2023-01-25T21:49:15.842Z,29.80
2023-01-25T21:51:50.856Z,29.30
2023-01-25T21:54:19.787Z,29.17
2023-01-25T21:56:48.213Z,29.70
2023-01-25T21:59:15.300Z,31.90
2023-01-25T22:01:43.178Z,30.38
2023-01-25T22:04:10.646Z,30.10
2023-01-25T22:06:37.575Z,28.88
2023-01-25T22:09:04.634Z,29.40
2023-01-25T22:11:31.568Z,29.98
2023-01-25T22:13:58.159Z,29.88
2023-01-25T22:16:24.999Z,30.48
2023-01-25T22:18:51.560Z,31.02
2023-01-25T22:21:28.768Z,31.70
2023-01-25T22:23:55.373Z,33.08
2023-01-25T22:26:24.825Z,31.95
2023-01-25T22:28:54.287Z,33.13
2023-01-25T22:31:25.965Z,32.47
2023-01-25T22:33:53.751Z,29.27
2023-01-25T22:36:22.749Z,28.13
2023-01-25T22:38:50.199Z,29.98
2023-01-25T22:41:25.220Z,31.42
2023-01-25T22:43:52.722Z,31.20
2023-01-25T22:46:22.257Z,31.67
2023-01-25T22:48:49.654Z,31.23
2023-01-25T22:51:23.981Z,29.77
2023-01-25T22:53:52.004Z,31.88
2023-01-25T22:56:22.563Z,31.45
2023-01-25T22:58:50.107Z,32.30
2023-01-25T23:01:18.064Z,33.50
2023-01-25T23:03:45.504Z,32.78
2023-01-25T23:06:15.699Z,32.45
2023-01-25T23:08:43.401Z,30.80
2023-01-25T23:11:21.383Z,30.88
2023-01-25T23:14:07.574Z,31.15
2023-01-25T23:16:36.099Z,27.63
2023-01-25T23:19:04.401Z,31.27
2023-01-25T23:21:31.902Z,30.73
2023-01-25T23:24:03.009Z,29.85
2023-01-25T23:26:39.028Z,29.80
2023-01-25T23:29:08.207Z,30.45
2023-01-25T23:31:35.276Z,33.33
2023-01-25T23:34:04.222Z,32.55
2023-01-25T23:36:34.092Z,34.50
2023-01-25T23:39:01.220Z,35.08
2023-01-25T23:41:29.514Z,32.03
2023-01-25T23:43:56.424Z,32.95
2023-01-25T23:46:24.061Z,33.40
2023-01-25T23:48:51.341Z,33.60
2023-01-25T23:51:20.057Z,33.53
2023-01-25T23:53:47.220Z,30.23
2023-01-25T23:56:17.281Z,31.17
2023-01-25T23:58:44.649Z,29.88
